Eastern Sierra Regional Airport Bishop US
ICAO: KBIH
IATA: BIH
Category: Medium
Scheduled Services: No

Elevation: 4124 ft
TransAlt. 18000 ft.

Airport Communications:
OAKLAND CNTR:125.75
ASOS:119.025
RIVERSIDE RDO:122.6
CTAF/UNICOM:123

KBIH Zoom In..

If you have problems with the map follow the link
https://www.worldairports.se/pages/airport.php?
ICAO=KBIH

Runways:

(A) RW 07 length 5567 ft width 100 ft
---- / hdg 75

(B) RW 12 length 7498 ft width 100 ft
---- / hdg 120

(C) RW 16 length 5600 ft width 100 ft
---- / hdg 165

(D) RW 25 length 5567 ft width 100 ft
---- / hdg 255

(E) RW 30 length 7498 ft width 100 ft
---- / hdg 300

(F) RW 34 length 5600 ft width 100 ft
---- / hdg 345

Location; KBIH
Day. 14 / Time. 17.56 Zulu
* Altimeter: 29.88
* Temperature: 13° c. 55.4°f.
* Wind from: 350° Speed 13 kn with Gusts up to 19 kn.
Dewpoint: -07° c.
Visibility: 10 Statute Miles.
Clouds: Clear (automated report).

KBIH 141756Z AUTO 35013G19KT 10SM CLR 13/M07 A2988 RMK AO2 SLP101 T01331072 10133 20006 50006


Wind From 350°
Speed 13 kn.

 
 
jpsmedia worldairports.se 2019   terms of use